createdAt,value
2022-07-30T00:01:19.964Z,12.27
2022-07-30T00:03:48.483Z,16.53
2022-07-30T00:06:16.959Z,13.57
2022-07-30T00:08:46.609Z,12.37
2022-07-30T00:11:15.573Z,16.23
2022-07-30T00:13:43.953Z,12.13
2022-07-30T00:16:12.758Z,16.00
2022-07-30T00:18:41.343Z,14.03
2022-07-30T00:21:11.508Z,15.07
2022-07-30T00:24:01.476Z,12.57
2022-07-30T00:26:31.106Z,16.00
2022-07-30T00:28:59.792Z,12.23
2022-07-30T00:31:28.166Z,20.20
2022-07-30T00:33:56.766Z,16.67
2022-07-30T00:36:25.586Z,12.60
2022-07-30T00:38:55.612Z,17.20
2022-07-30T00:41:24.030Z,13.37
2022-07-30T00:43:52.419Z,13.00
2022-07-30T00:46:20.823Z,15.20
2022-07-30T00:48:49.453Z,12.10
2022-07-30T00:51:17.938Z,15.53
2022-07-30T00:53:46.221Z,14.60
2022-07-30T00:56:17.451Z,16.70
2022-07-30T00:58:45.937Z,15.13
2022-07-30T01:01:14.541Z,11.60
2022-07-30T01:03:42.964Z,10.40
2022-07-30T01:06:14.541Z,11.67
2022-07-30T01:08:44.975Z,16.00
2022-07-30T01:11:13.542Z,13.00
2022-07-30T01:13:46.584Z,12.67
2022-07-30T01:16:16.355Z,16.40
2022-07-30T01:19:04.639Z,11.83
2022-07-30T01:21:38.489Z,18.07
2022-07-30T01:24:20.223Z,17.07
2022-07-30T01:26:52.205Z,15.77
2022-07-30T01:29:21.806Z,12.33
2022-07-30T01:31:53.097Z,17.80
2022-07-30T01:34:23.052Z,18.50
2022-07-30T01:36:52.178Z,16.30
2022-07-30T01:39:21.587Z,14.40
2022-07-30T01:41:54.101Z,18.60
2022-07-30T01:44:25.114Z,16.53
2022-07-30T01:46:55.731Z,15.97
2022-07-30T01:49:26.426Z,19.40
2022-07-30T01:51:55.983Z,18.47
2022-07-30T01:54:28.077Z,21.73
2022-07-30T01:57:00.832Z,18.07
2022-07-30T01:59:33.065Z,19.50
2022-07-30T02:02:01.984Z,16.77
2022-07-30T02:04:31.247Z,18.30
2022-07-30T02:07:04.335Z,21.90
2022-07-30T02:09:39.310Z,21.77
2022-07-30T02:12:32.243Z,18.83
2022-07-30T02:15:15.939Z,17.30
2022-07-30T02:17:50.184Z,14.37
2022-07-30T02:20:19.706Z,17.50
2022-07-30T02:22:56.753Z,20.27
2022-07-30T02:25:25.546Z,23.67
2022-07-30T02:27:59.371Z,19.70
2022-07-30T02:30:32.817Z,21.10
2022-07-30T02:33:06.093Z,21.30
2022-07-30T02:35:35.386Z,18.53
2022-07-30T02:38:05.639Z,19.73
2022-07-30T02:40:34.071Z,23.00
2022-07-30T02:43:04.200Z,21.57
2022-07-30T02:45:32.834Z,28.83
2022-07-30T02:48:06.690Z,22.30
2022-07-30T02:50:36.256Z,22.40
2022-07-30T02:53:09.019Z,25.20
2022-07-30T02:55:39.310Z,27.67
2022-07-30T02:58:10.320Z,23.83
2022-07-30T03:00:40.109Z,21.20
2022-07-30T03:03:10.030Z,22.43
2022-07-30T03:05:41.014Z,29.57
2022-07-30T03:08:10.981Z,28.73
2022-07-30T03:10:41.584Z,28.07
2022-07-30T03:13:13.475Z,29.07
2022-07-30T03:15:49.713Z,30.00
2022-07-30T03:18:24.404Z,27.70
2022-07-30T03:20:56.195Z,26.00
2022-07-30T03:23:25.767Z,32.83
2022-07-30T03:25:58.015Z,28.53
2022-07-30T03:28:29.336Z,26.73
2022-07-30T03:30:58.746Z,31.70
2022-07-30T03:33:38.694Z,32.83
2022-07-30T03:36:09.937Z,38.60
2022-07-30T03:38:39.121Z,29.40
2022-07-30T03:41:09.207Z,32.23
2022-07-30T03:43:40.684Z,37.07
2022-07-30T03:46:11.264Z,29.97
2022-07-30T03:48:45.141Z,29.97
2022-07-30T03:51:14.412Z,33.57
2022-07-30T03:53:44.846Z,36.57
2022-07-30T03:56:31.695Z,35.67
2022-07-30T03:59:08.300Z,35.40
2022-07-30T04:01:40.165Z,40.03
2022-07-30T04:04:16.799Z,41.50
2022-07-30T04:06:45.225Z,42.90
2022-07-30T04:09:16.298Z,39.03
2022-07-30T04:11:45.371Z,42.17
2022-07-30T04:14:22.535Z,42.53
2022-07-30T04:16:56.328Z,43.27
2022-07-30T04:19:31.252Z,42.00
2022-07-30T04:22:02.264Z,52.23
2022-07-30T04:24:33.355Z,46.97
2022-07-30T04:27:04.329Z,44.77
2022-07-30T04:29:34.825Z,42.83
2022-07-30T04:32:03.877Z,48.40
2022-07-30T04:34:38.495Z,49.87
2022-07-30T04:37:09.414Z,54.23
2022-07-30T04:39:37.909Z,51.63
2022-07-30T04:42:06.408Z,52.83
2022-07-30T04:44:40.198Z,53.10
2022-07-30T04:47:26.021Z,46.50
2022-07-30T04:50:30.756Z,47.20
2022-07-30T04:52:59.967Z,52.63
2022-07-30T04:55:34.181Z,52.50
2022-07-30T04:58:03.846Z,48.83
2022-07-30T05:00:41.179Z,43.77
2022-07-30T05:03:15.641Z,47.87
2022-07-30T05:05:52.048Z,41.87
2022-07-30T05:08:24.945Z,40.70
2022-07-30T05:10:53.767Z,37.07
2022-07-30T05:13:22.613Z,36.20
2022-07-30T05:16:06.885Z,38.93
2022-07-30T05:18:38.985Z,37.27
2022-07-30T05:21:08.400Z,41.53
2022-07-30T05:23:39.299Z,36.13
2022-07-30T05:26:21.679Z,37.70
2022-07-30T05:28:55.164Z,40.70
2022-07-30T05:31:32.920Z,43.13
2022-07-30T05:34:04.481Z,34.63
2022-07-30T05:36:44.666Z,33.87
2022-07-30T05:39:15.413Z,37.50
2022-07-30T05:42:02.484Z,33.47
2022-07-30T05:44:48.987Z,36.97
2022-07-30T05:47:21.063Z,47.07
2022-07-30T05:49:53.310Z,41.53
2022-07-30T05:52:22.046Z,43.73
2022-07-30T05:54:51.208Z,40.97
2022-07-30T05:57:25.625Z,37.03
2022-07-30T05:59:54.321Z,38.73
2022-07-30T06:02:28.811Z,32.30
2022-07-30T06:05:15.929Z,30.70
2022-07-30T06:07:45.103Z,29.40
2022-07-30T06:10:14.384Z,30.20
2022-07-30T06:12:43.859Z,32.30
2022-07-30T06:15:12.795Z,29.33
2022-07-30T06:17:44.999Z,32.67
2022-07-30T06:20:29.212Z,37.53
2022-07-30T06:23:17.798Z,28.80
2022-07-30T06:26:16.095Z,31.73
2022-07-30T06:28:45.392Z,24.17
2022-07-30T06:31:21.490Z,28.43
2022-07-30T06:33:51.438Z,26.10
2022-07-30T06:36:20.107Z,31.07
2022-07-30T06:39:14.896Z,29.87
2022-07-30T06:42:22.082Z,30.43
2022-07-30T06:45:11.946Z,23.57
2022-07-30T06:48:03.358Z,27.00
2022-07-30T06:50:36.796Z,28.77
2022-07-30T06:53:05.372Z,26.73
2022-07-30T06:55:58.491Z,23.83
2022-07-30T06:58:34.462Z,29.97
2022-07-30T07:01:23.639Z,28.90
2022-07-30T07:03:53.032Z,26.53
2022-07-30T07:06:23.102Z,33.00
2022-07-30T07:08:51.579Z,31.70
2022-07-30T07:11:26.618Z,29.43
2022-07-30T07:14:02.642Z,26.53
2022-07-30T07:16:36.229Z,28.57
2022-07-30T07:20:00.418Z,22.33
2022-07-30T07:22:27.437Z,26.23
2022-07-30T07:24:55.977Z,27.07
2022-07-30T07:27:28.342Z,24.30
2022-07-30T07:30:01.218Z,30.93
2022-07-30T07:32:34.290Z,27.07
2022-07-30T07:35:03.347Z,30.07
2022-07-30T07:37:33.703Z,25.83
2022-07-30T07:40:02.355Z,30.87
2022-07-30T07:42:33.821Z,22.77
2022-07-30T07:45:02.872Z,22.63
2022-07-30T07:47:53.090Z,23.80
2022-07-30T07:50:46.218Z,23.23
2022-07-30T07:53:24.732Z,24.17
2022-07-30T07:55:54.337Z,19.43
2022-07-30T07:58:26.455Z,20.53
2022-07-30T08:00:59.065Z,18.80
2022-07-30T08:03:47.429Z,20.43
2022-07-30T08:06:45.157Z,20.50
2022-07-30T08:09:40.766Z,16.27
2022-07-30T08:12:21.989Z,17.53
2022-07-30T08:15:21.976Z,15.50
2022-07-30T08:18:22.774Z,15.70
2022-07-30T08:21:15.377Z,16.47
2022-07-30T08:23:43.990Z,16.60
2022-07-30T08:26:14.306Z,16.07
2022-07-30T08:28:45.848Z,16.30
2022-07-30T08:31:16.566Z,16.93
2022-07-30T08:33:47.502Z,11.93
2022-07-30T08:36:16.212Z,13.73
2022-07-30T08:38:44.673Z,12.67
2022-07-30T08:41:14.790Z,15.53
2022-07-30T08:43:43.828Z,17.70
2022-07-30T08:46:14.663Z,16.40
2022-07-30T08:48:57.868Z,17.37
2022-07-30T08:51:26.490Z,15.60
2022-07-30T08:54:07.735Z,10.17
2022-07-30T08:56:38.469Z,14.90
2022-07-30T08:59:08.787Z,13.07
2022-07-30T09:01:40.253Z,11.60
2022-07-30T09:04:08.759Z,12.73
2022-07-30T09:06:38.128Z,16.77
2022-07-30T09:09:07.491Z,12.00
2022-07-30T09:11:36.548Z,12.07
2022-07-30T09:14:15.141Z,15.77
2022-07-30T09:16:45.491Z,13.53
2022-07-30T09:19:16.382Z,15.30
2022-07-30T09:21:56.660Z,10.67
2022-07-30T09:24:43.253Z,10.43
2022-07-30T09:27:46.376Z,14.43
2022-07-30T09:30:48.268Z,12.63
2022-07-30T09:33:38.451Z,8.13
2022-07-30T09:36:32.934Z,9.67
2022-07-30T09:39:30.553Z,7.73
2022-07-30T09:42:20.287Z,10.53
2022-07-30T09:44:50.102Z,14.90
2022-07-30T09:47:35.057Z,16.23
2022-07-30T09:50:07.204Z,5.30
2022-07-30T09:52:36.506Z,7.50
2022-07-30T09:55:13.765Z,10.17
2022-07-30T10:00:46.478Z,8.73
2022-07-30T10:03:43.198Z,8.10
2022-07-30T10:06:34.592Z,6.77
2022-07-30T10:09:14.103Z,5.73
2022-07-30T10:11:46.078Z,4.47
2022-07-30T10:14:15.958Z,9.23
2022-07-30T10:16:44.637Z,12.57
2022-07-30T10:19:18.235Z,5.60
2022-07-30T10:22:30.324Z,6.00
2022-07-30T10:25:35.223Z,5.83
2022-07-30T10:28:24.422Z,5.27
2022-07-30T10:30:55.030Z,5.77
2022-07-30T10:33:34.486Z,10.00
2022-07-30T10:36:12.455Z,7.83
2022-07-30T10:38:52.702Z,10.47
2022-07-30T10:41:42.957Z,5.33
2022-07-30T10:44:49.338Z,5.43
2022-07-30T10:47:19.757Z,6.00
2022-07-30T10:50:14.465Z,5.63
2022-07-30T10:52:51.877Z,8.13
2022-07-30T10:55:37.166Z,7.37
2022-07-30T10:58:10.218Z,4.37
2022-07-30T11:01:00.884Z,9.90
2022-07-30T11:03:41.482Z,4.73
2022-07-30T11:06:27.283Z,6.40
2022-07-30T11:08:58.108Z,6.30
2022-07-30T11:12:16.124Z,7.23
2022-07-30T11:15:07.198Z,6.93
2022-07-30T11:18:11.453Z,5.37
2022-07-30T11:20:43.282Z,6.70
2022-07-30T11:23:41.599Z,3.63
2022-07-30T11:26:14.295Z,6.77
2022-07-30T11:28:45.794Z,6.40
2022-07-30T11:31:37.218Z,6.73
2022-07-30T11:34:27.905Z,7.03
2022-07-30T11:37:32.225Z,4.83
2022-07-30T11:40:13.997Z,8.80
2022-07-30T11:42:45.036Z,5.27
2022-07-30T11:45:26.942Z,3.30
2022-07-30T11:47:57.970Z,5.70
2022-07-30T11:50:29.187Z,4.57
2022-07-30T11:52:59.579Z,4.77
2022-07-30T11:55:30.425Z,7.03
2022-07-30T11:58:02.248Z,6.90
2022-07-30T12:00:36.132Z,3.70
2022-07-30T12:03:13.311Z,6.30
2022-07-30T12:05:42.512Z,3.63
2022-07-30T12:08:35.135Z,32.13
2022-07-30T12:11:01.714Z,5.32
2022-07-30T12:13:45.502Z,2.45
2022-07-30T12:16:18.509Z,3.38
2022-07-30T12:18:48.354Z,4.97
2022-07-30T12:21:17.715Z,4.95
2022-07-30T12:23:56.571Z,5.53
2022-07-30T12:26:27.158Z,3.10
2022-07-30T12:28:59.842Z,4.65
2022-07-30T12:31:29.324Z,5.47
2022-07-30T12:33:59.097Z,2.47
2022-07-30T12:36:31.045Z,9.77
2022-07-30T12:39:00.499Z,4.30
2022-07-30T12:41:45.917Z,7.30
2022-07-30T12:44:36.897Z,3.58
2022-07-30T12:47:07.082Z,3.80
2022-07-30T12:49:36.694Z,5.93
2022-07-30T12:52:13.511Z,4.88
2022-07-30T12:55:04.933Z,4.35
2022-07-30T12:57:56.237Z,5.55
2022-07-30T13:00:28.253Z,5.72
2022-07-30T13:02:57.201Z,3.70
2022-07-30T13:05:46.081Z,4.30
2022-07-30T13:08:14.624Z,6.68
2022-07-30T13:10:56.110Z,5.20
2022-07-30T13:13:24.905Z,7.15
2022-07-30T13:16:02.188Z,4.22
2022-07-30T13:18:32.140Z,3.95
2022-07-30T13:21:01.755Z,3.55
2022-07-30T13:23:30.742Z,4.38
2022-07-30T13:25:59.722Z,3.65
2022-07-30T13:28:28.260Z,8.18
2022-07-30T13:30:57.970Z,6.05
2022-07-30T13:33:28.061Z,3.80
2022-07-30T13:35:57.190Z,5.35
2022-07-30T13:38:25.787Z,3.10
2022-07-30T13:40:57.953Z,4.55
2022-07-30T13:43:29.403Z,3.90
2022-07-30T13:46:01.984Z,4.00
2022-07-30T13:48:32.327Z,5.60
2022-07-30T13:51:02.220Z,6.35
2022-07-30T13:53:31.250Z,4.00
2022-07-30T13:56:00.538Z,3.63
2022-07-30T13:58:34.056Z,3.75
2022-07-30T14:01:07.236Z,3.72
2022-07-30T14:03:37.427Z,6.18
2022-07-30T14:06:10.489Z,4.43
2022-07-30T14:08:39.996Z,4.03
2022-07-30T14:11:08.471Z,5.43
2022-07-30T14:13:37.010Z,8.00
2022-07-30T14:16:17.884Z,6.35
2022-07-30T14:18:57.506Z,3.97
2022-07-30T14:21:26.459Z,3.88
2022-07-30T14:23:55.106Z,5.50
2022-07-30T14:26:23.504Z,5.50
2022-07-30T14:28:51.960Z,7.15
2022-07-30T14:31:20.485Z,3.33
2022-07-30T14:33:48.911Z,4.32
2022-07-30T14:36:18.739Z,3.95
2022-07-30T14:38:47.224Z,8.40
2022-07-30T14:41:15.811Z,4.07
2022-07-30T14:43:44.376Z,7.15
2022-07-30T14:46:12.990Z,5.35
2022-07-30T14:48:41.526Z,7.25
2022-07-30T14:51:17.702Z,4.95
2022-07-30T14:53:51.704Z,2.45
2022-07-30T14:56:21.517Z,4.18
2022-07-30T14:58:50.356Z,3.97
2022-07-30T15:01:19.362Z,3.83
2022-07-30T15:03:48.211Z,4.82
2022-07-30T15:06:17.452Z,6.22
2022-07-30T15:08:46.221Z,4.97
2022-07-30T15:11:17.311Z,4.70
2022-07-30T15:13:50.152Z,2.45
2022-07-30T15:16:19.241Z,4.68
2022-07-30T15:18:48.082Z,6.10
2022-07-30T15:21:17.142Z,5.70
2022-07-30T15:23:45.887Z,7.30
2022-07-30T15:26:15.913Z,7.25
2022-07-30T15:28:44.410Z,4.43
2022-07-30T15:31:13.353Z,4.90
2022-07-30T15:33:45.097Z,3.80
2022-07-30T15:36:14.368Z,4.07
2022-07-30T15:38:43.423Z,8.00
2022-07-30T15:41:13.834Z,4.53
2022-07-30T15:43:44.697Z,3.65
2022-07-30T15:46:13.153Z,4.35
2022-07-30T15:48:41.831Z,4.07
2022-07-30T15:51:12.035Z,4.22
2022-07-30T15:53:40.670Z,4.78
2022-07-30T15:56:09.341Z,3.65
2022-07-30T15:58:43.037Z,4.50
2022-07-30T16:01:13.542Z,3.45
2022-07-30T16:03:42.368Z,4.85
2022-07-30T16:06:10.864Z,3.38
2022-07-30T16:08:39.434Z,3.83
2022-07-30T16:11:08.153Z,4.82
2022-07-30T16:13:40.092Z,5.18
2022-07-30T16:16:08.736Z,7.20
2022-07-30T16:19:07.577Z,8.88
2022-07-30T16:21:37.039Z,3.92
2022-07-30T16:24:05.798Z,6.18
2022-07-30T16:26:37.342Z,4.10
2022-07-30T16:29:09.509Z,3.03
2022-07-30T16:31:43.884Z,2.65
2022-07-30T16:34:13.760Z,7.28
2022-07-30T16:36:42.273Z,6.32
2022-07-30T16:39:11.589Z,7.47
2022-07-30T16:41:41.147Z,8.07
2022-07-30T16:44:10.305Z,7.97
2022-07-30T16:46:38.963Z,3.50
2022-07-30T16:49:07.743Z,4.68
2022-07-30T16:51:37.703Z,6.18
2022-07-30T16:54:07.724Z,7.20
2022-07-30T16:56:36.405Z,7.05
2022-07-30T16:59:04.824Z,6.80
2022-07-30T17:01:34.202Z,10.25
2022-07-30T17:04:03.249Z,4.80
2022-07-30T17:06:31.737Z,3.70
2022-07-30T17:09:01.770Z,11.13
2022-07-30T17:11:46.980Z,7.40
2022-07-30T17:14:16.927Z,2.85
2022-07-30T17:16:45.524Z,8.48
2022-07-30T17:19:13.976Z,11.23
2022-07-30T17:21:42.504Z,10.20
2022-07-30T17:24:13.734Z,3.55
2022-07-30T17:26:44.041Z,6.28
2022-07-30T17:29:14.781Z,3.55
2022-07-30T17:31:44.673Z,7.28
2022-07-30T17:34:14.852Z,3.85
2022-07-30T17:36:52.297Z,4.95
2022-07-30T17:40:27.577Z,3.28
2022-07-30T17:42:13.131Z,6.97
2022-07-30T17:44:43.676Z,1.85
2022-07-30T17:47:15.030Z,3.67
2022-07-30T17:49:47.651Z,4.30
2022-07-30T17:52:30.312Z,4.70
2022-07-30T17:55:06.389Z,5.13
2022-07-30T17:57:36.988Z,6.22
2022-07-30T18:00:06.787Z,5.25
2022-07-30T18:02:51.090Z,6.38
2022-07-30T18:05:20.063Z,4.97
2022-07-30T18:07:48.634Z,10.93
2022-07-30T18:10:20.897Z,6.35
2022-07-30T18:12:49.686Z,7.43
2022-07-30T18:15:18.375Z,5.93
2022-07-30T18:17:46.962Z,5.93
2022-07-30T18:20:18.527Z,3.37
2022-07-30T18:22:47.000Z,10.80
2022-07-30T18:25:23.137Z,4.18
2022-07-30T18:27:52.491Z,5.03
2022-07-30T18:30:21.180Z,8.83
2022-07-30T18:32:50.795Z,4.27
2022-07-30T18:35:19.243Z,6.22
2022-07-30T18:37:48.427Z,6.07
2022-07-30T18:40:23.764Z,6.13
2022-07-30T18:42:54.111Z,6.50
2022-07-30T18:45:22.920Z,7.53
2022-07-30T18:47:51.427Z,4.47
2022-07-30T18:50:20.108Z,4.33
2022-07-30T18:52:48.628Z,6.10
2022-07-30T18:55:18.091Z,2.37
2022-07-30T18:57:46.564Z,5.17
2022-07-30T19:00:35.793Z,5.60
2022-07-30T19:03:04.383Z,4.07
2022-07-30T19:05:32.899Z,3.07
2022-07-30T19:08:01.220Z,3.67
2022-07-30T19:10:29.740Z,4.20
2022-07-30T19:12:58.666Z,8.07
2022-07-30T19:15:29.598Z,5.83
2022-07-30T19:17:58.747Z,5.40
2022-07-30T19:20:27.637Z,3.63
2022-07-30T19:23:02.511Z,2.87
2022-07-30T19:25:32.482Z,4.10
2022-07-30T19:28:02.187Z,2.73
2022-07-30T19:30:32.825Z,7.97
2022-07-30T19:33:04.931Z,4.73
2022-07-30T19:35:33.626Z,4.87
2022-07-30T19:38:02.415Z,3.00
2022-07-30T19:40:31.426Z,5.30
2022-07-30T19:43:06.405Z,3.83
2022-07-30T19:45:46.781Z,3.33
2022-07-30T19:48:15.750Z,5.50
2022-07-30T19:50:58.892Z,6.70
2022-07-30T19:53:27.953Z,8.53
2022-07-30T19:56:01.845Z,5.20
2022-07-30T19:58:32.946Z,3.80
2022-07-30T20:01:02.983Z,5.00
2022-07-30T20:03:39.035Z,4.63
2022-07-30T20:06:14.916Z,6.07
2022-07-30T20:08:45.180Z,9.87
2022-07-30T20:11:34.670Z,6.73
2022-07-30T20:14:02.979Z,2.47
2022-07-30T20:16:33.169Z,4.73
2022-07-30T20:19:03.304Z,3.10
2022-07-30T20:24:22.507Z,3.20
2022-07-30T20:26:51.799Z,3.33
2022-07-30T20:29:20.816Z,3.10
2022-07-30T20:31:51.333Z,7.17
2022-07-30T20:34:23.352Z,5.73
2022-07-30T20:36:53.958Z,7.83
2022-07-30T20:39:26.090Z,7.63
2022-07-30T20:42:08.146Z,5.63
2022-07-30T20:44:38.393Z,3.40
2022-07-30T20:47:09.063Z,4.30
2022-07-30T20:49:38.620Z,3.27
2022-07-30T20:52:09.755Z,3.63
2022-07-30T20:54:43.807Z,3.30
2022-07-30T20:57:15.475Z,7.03
2022-07-30T20:59:45.627Z,3.17
2022-07-30T21:02:15.978Z,3.03
2022-07-30T21:04:46.333Z,3.50
2022-07-30T21:07:20.694Z,4.57
2022-07-30T21:12:38.770Z,6.87
2022-07-30T21:18:02.427Z,4.20
2022-07-30T21:20:33.459Z,5.00
2022-07-30T21:23:10.288Z,4.07
2022-07-30T21:26:00.558Z,7.17
2022-07-30T21:28:29.741Z,10.10
2022-07-30T21:31:06.945Z,4.00
2022-07-30T21:33:54.376Z,5.80
2022-07-30T21:36:24.885Z,3.90
2022-07-30T21:38:53.969Z,6.23
2022-07-30T21:41:40.219Z,5.90
2022-07-30T21:44:09.904Z,3.10
2022-07-30T21:46:40.595Z,4.00
2022-07-30T21:49:11.967Z,3.33
2022-07-30T21:51:40.738Z,4.17
2022-07-30T21:54:17.076Z,3.60
2022-07-30T21:56:58.121Z,7.20
2022-07-30T21:59:27.515Z,10.03
2022-07-30T22:01:56.395Z,4.10
2022-07-30T22:07:15.261Z,3.80
2022-07-30T22:09:44.028Z,5.53
2022-07-30T22:12:18.107Z,3.40
2022-07-30T22:14:49.619Z,5.33
2022-07-30T22:17:23.809Z,5.97
2022-07-30T22:20:11.487Z,3.80
2022-07-30T22:22:40.913Z,7.90
2022-07-30T22:25:11.065Z,4.40
2022-07-30T22:27:55.924Z,4.50
2022-07-30T22:30:26.921Z,4.07
2022-07-30T22:32:56.495Z,3.90
2022-07-30T22:35:32.117Z,3.93
2022-07-30T22:38:03.480Z,5.80
2022-07-30T22:40:32.758Z,5.83
2022-07-30T22:43:04.338Z,9.07
2022-07-30T22:45:48.321Z,3.40
2022-07-30T22:48:27.222Z,9.57
2022-07-30T22:50:58.489Z,6.37
2022-07-30T22:54:11.774Z,5.90
2022-07-30T22:56:18.608Z,4.37
2022-07-30T22:58:48.609Z,16.77
2022-07-30T23:01:17.897Z,4.87
2022-07-30T23:03:48.122Z,5.87
2022-07-30T23:06:18.145Z,3.47
2022-07-30T23:08:50.410Z,4.20
2022-07-30T23:11:19.267Z,4.27
2022-07-30T23:12:17.923Z,3.47
2022-07-30T23:12:26.823Z,4.87
2022-07-30T23:12:26.971Z,4.90
2022-07-30T23:12:32.485Z,4.00
2022-07-30T23:13:49.360Z,6.33
2022-07-30T23:16:17.904Z,3.53
2022-07-30T23:18:46.620Z,4.07
2022-07-30T23:21:15.371Z,4.13
2022-07-30T23:23:45.608Z,5.10
2022-07-30T23:26:14.030Z,3.87
2022-07-30T23:28:42.748Z,6.33
2022-07-30T23:31:11.689Z,4.37
2022-07-30T23:33:40.581Z,5.23
2022-07-30T23:36:10.705Z,5.83
2022-07-30T23:38:40.235Z,4.17
2022-07-30T23:41:10.341Z,3.87
2022-07-30T23:43:39.985Z,5.20
2022-07-30T23:46:09.695Z,6.93
2022-07-30T23:48:39.960Z,5.93
2022-07-30T23:51:08.610Z,7.47
2022-07-30T23:53:37.220Z,4.03
2022-07-30T23:56:06.107Z,4.70
2022-07-30T23:58:36.563Z,4.10
